sensor_id;sensor_type;location;lat;lon;timestamp;pressure;altitude;pressure_sealevel;temperature;humidity
15263;BME280;7733;51.554;13.590;2023-03-24T00:00:20;99551.19;;;14.21;77.96
15263;BME280;7733;51.554;13.590;2023-03-24T00:02:49;99548.84;;;13.93;78.83
15263;BME280;7733;51.554;13.590;2023-03-24T00:05:19;99542.59;;;13.96;78.98
15263;BME280;7733;51.554;13.590;2023-03-24T00:07:46;99543.34;;;14.20;78.18
15263;BME280;7733;51.554;13.590;2023-03-24T00:10:17;99543.38;;;13.98;79.61
15263;BME280;7733;51.554;13.590;2023-03-24T00:12:45;99533.03;;;13.93;79.10
15263;BME280;7733;51.554;13.590;2023-03-24T00:15:15;99532.59;;;14.04;78.73
15263;BME280;7733;51.554;13.590;2023-03-24T00:17:41;99535.00;;;14.30;77.39
15263;BME280;7733;51.554;13.590;2023-03-24T00:20:11;99535.81;;;13.90;78.64
15263;BME280;7733;51.554;13.590;2023-03-24T00:22:49;99530.75;;;14.06;78.29
15263;BME280;7733;51.554;13.590;2023-03-24T00:25:26;99537.22;;;14.19;77.33
15263;BME280;7733;51.554;13.590;2023-03-24T00:28:02;99527.16;;;14.29;77.24
15263;BME280;7733;51.554;13.590;2023-03-24T00:30:30;99535.03;;;14.09;77.96
15263;BME280;7733;51.554;13.590;2023-03-24T00:32:56;99528.38;;;14.20;77.69
15263;BME280;7733;51.554;13.590;2023-03-24T00:35:23;99525.00;;;13.96;78.46
15263;BME280;7733;51.554;13.590;2023-03-24T00:37:49;99516.38;;;14.13;77.88
15263;BME280;7733;51.554;13.590;2023-03-24T00:40:18;99523.00;;;14.03;78.53
15263;BME280;7733;51.554;13.590;2023-03-24T00:42:46;99520.34;;;14.03;78.23
15263;BME280;7733;51.554;13.590;2023-03-24T00:45:20;99508.88;;;14.24;77.32
15263;BME280;7733;51.554;13.590;2023-03-24T00:47:48;99510.03;;;13.97;78.26
15263;BME280;7733;51.554;13.590;2023-03-24T00:50:19;99509.91;;;14.20;77.27
15263;BME280;7733;51.554;13.590;2023-03-24T00:52:52;99500.69;;;14.10;78.02
15263;BME280;7733;51.554;13.590;2023-03-24T00:55:18;99494.09;;;14.00;78.19
15263;BME280;7733;51.554;13.590;2023-03-24T00:57:47;99489.34;;;14.08;77.43
15263;BME280;7733;51.554;13.590;2023-03-24T01:00:20;99480.53;;;14.09;78.18
15263;BME280;7733;51.554;13.590;2023-03-24T01:02:52;99478.16;;;14.03;78.05
15263;BME280;7733;51.554;13.590;2023-03-24T01:05:24;99478.03;;;14.06;78.98
15263;BME280;7733;51.554;13.590;2023-03-24T01:07:56;99475.75;;;14.38;76.95
15263;BME280;7733;51.554;13.590;2023-03-24T01:10:23;99468.25;;;14.08;78.26
15263;BME280;7733;51.554;13.590;2023-03-24T01:12:54;99459.50;;;14.08;78.18
15263;BME280;7733;51.554;13.590;2023-03-24T01:15:23;99462.41;;;14.22;78.34
15263;BME280;7733;51.554;13.590;2023-03-24T01:17:50;99456.38;;;14.18;78.13
15263;BME280;7733;51.554;13.590;2023-03-24T01:20:19;99450.94;;;14.43;76.87
15263;BME280;7733;51.554;13.590;2023-03-24T01:22:45;99448.59;;;14.36;77.44
15263;BME280;7733;51.554;13.590;2023-03-24T01:25:21;99443.00;;;14.23;77.90
15263;BME280;7733;51.554;13.590;2023-03-24T01:27:49;99437.81;;;14.60;76.60
15263;BME280;7733;51.554;13.590;2023-03-24T01:30:18;99438.53;;;14.64;75.66
15263;BME280;7733;51.554;13.590;2023-03-24T01:32:45;99437.94;;;14.57;76.24
15263;BME280;7733;51.554;13.590;2023-03-24T01:35:11;99438.97;;;14.74;75.58
15263;BME280;7733;51.554;13.590;2023-03-24T01:37:38;99422.69;;;15.02;73.96
15263;BME280;7733;51.554;13.590;2023-03-24T01:40:07;99413.56;;;14.90;74.28
15263;BME280;7733;51.554;13.590;2023-03-24T01:42:38;99421.09;;;15.16;73.37
15263;BME280;7733;51.554;13.590;2023-03-24T01:48:16;99420.63;;;15.08;73.04
15263;BME280;7733;51.554;13.590;2023-03-24T01:51:00;99409.38;;;15.22;73.03
15263;BME280;7733;51.554;13.590;2023-03-24T01:53:29;99413.38;;;15.12;73.29
15263;BME280;7733;51.554;13.590;2023-03-24T01:55:58;99402.97;;;15.09;72.85
15263;BME280;7733;51.554;13.590;2023-03-24T01:58:28;99400.44;;;14.88;73.81
15263;BME280;7733;51.554;13.590;2023-03-24T02:00:55;99401.63;;;14.81;74.54
15263;BME280;7733;51.554;13.590;2023-03-24T02:03:25;99399.50;;;14.89;74.54
15263;BME280;7733;51.554;13.590;2023-03-24T02:05:55;99394.09;;;15.29;72.84
15263;BME280;7733;51.554;13.590;2023-03-24T02:11:01;99389.03;;;15.24;72.64
15263;BME280;7733;51.554;13.590;2023-03-24T02:13:27;99389.19;;;14.66;75.24
15263;BME280;7733;51.554;13.590;2023-03-24T02:27:35;99376.72;;;15.06;73.66
15263;BME280;7733;51.554;13.590;2023-03-24T02:41:59;99374.34;;;14.45;77.60
15263;BME280;7733;51.554;13.590;2023-03-24T02:44:40;99382.13;;;14.48;77.86
15263;BME280;7733;51.554;13.590;2023-03-24T02:47:23;99380.63;;;14.41;79.33
15263;BME280;7733;51.554;13.590;2023-03-24T02:50:18;99373.84;;;14.35;79.45
15263;BME280;7733;51.554;13.590;2023-03-24T02:58:40;99365.38;;;14.28;82.56
15263;BME280;7733;51.554;13.590;2023-03-24T03:01:19;99359.00;;;14.14;83.72
15263;BME280;7733;51.554;13.590;2023-03-24T03:04:01;99356.50;;;14.50;82.03
15263;BME280;7733;51.554;13.590;2023-03-24T03:06:36;99345.47;;;14.40;82.35
15263;BME280;7733;51.554;13.590;2023-03-24T03:09:10;99346.84;;;14.30;83.67
15263;BME280;7733;51.554;13.590;2023-03-24T03:11:39;99339.63;;;14.34;83.43
15263;BME280;7733;51.554;13.590;2023-03-24T03:14:21;99341.06;;;14.41;83.37
15263;BME280;7733;51.554;13.590;2023-03-24T03:16:57;99345.06;;;14.30;83.95
15263;BME280;7733;51.554;13.590;2023-03-24T03:19:37;99341.34;;;14.35;84.58
15263;BME280;7733;51.554;13.590;2023-03-24T03:22:11;99338.13;;;14.48;83.79
15263;BME280;7733;51.554;13.590;2023-03-24T03:24:47;99335.81;;;14.22;86.43
15263;BME280;7733;51.554;13.590;2023-03-24T03:27:23;99341.25;;;14.17;88.08
15263;BME280;7733;51.554;13.590;2023-03-24T03:30:17;99335.38;;;13.92;89.42
15263;BME280;7733;51.554;13.590;2023-03-24T03:32:55;99339.44;;;14.57;86.95
15263;BME280;7733;51.554;13.590;2023-03-24T03:35:44;99337.00;;;14.15;90.57
15263;BME280;7733;51.554;13.590;2023-03-24T03:41:18;99338.91;;;14.11;94.34
15263;BME280;7733;51.554;13.590;2023-03-24T03:43:47;99335.19;;;13.96;96.42
15263;BME280;7733;51.554;13.590;2023-03-24T03:46:15;99332.31;;;14.01;99.64
15263;BME280;7733;51.554;13.590;2023-03-24T03:48:43;99328.94;;;13.79;100.00
15263;BME280;7733;51.554;13.590;2023-03-24T03:51:11;99321.81;;;14.20;99.52
15263;BME280;7733;51.554;13.590;2023-03-24T03:53:51;99321.09;;;13.77;100.00
15263;BME280;7733;51.554;13.590;2023-03-24T03:56:24;99322.50;;;13.86;100.00
15263;BME280;7733;51.554;13.590;2023-03-24T03:58:50;99321.09;;;13.77;100.00
15263;BME280;7733;51.554;13.590;2023-03-24T04:01:22;99315.31;;;13.69;100.00
15263;BME280;7733;51.554;13.590;2023-03-24T04:04:30;99314.84;;;13.80;100.00
15263;BME280;7733;51.554;13.590;2023-03-24T04:07:22;99301.41;;;13.86;100.00
15263;BME280;7733;51.554;13.590;2023-03-24T04:15:31;99309.06;;;13.72;100.00
15263;BME280;7733;51.554;13.590;2023-03-24T04:23:56;99306.94;;;13.59;100.00
15263;BME280;7733;51.554;13.590;2023-03-24T04:26:38;99311.03;;;13.87;100.00
15263;BME280;7733;51.554;13.590;2023-03-24T04:29:47;99298.25;;;13.57;100.00
15263;BME280;7733;51.554;13.590;2023-03-24T04:35:04;99286.34;;;13.69;100.00
15263;BME280;7733;51.554;13.590;2023-03-24T04:37:33;99276.19;;;13.60;100.00
15263;BME280;7733;51.554;13.590;2023-03-24T04:40:10;99279.59;;;13.82;100.00
15263;BME280;7733;51.554;13.590;2023-03-24T04:42:50;99282.72;;;13.72;100.00
15263;BME280;7733;51.554;13.590;2023-03-24T04:45:18;99286.44;;;13.47;100.00
15263;BME280;7733;51.554;13.590;2023-03-24T04:47:53;99288.66;;;13.56;100.00
15263;BME280;7733;51.554;13.590;2023-03-24T04:50:39;99282.22;;;13.43;100.00
15263;BME280;7733;51.554;13.590;2023-03-24T04:53:06;99282.88;;;13.87;100.00
15263;BME280;7733;51.554;13.590;2023-03-24T04:56:00;99281.84;;;13.71;100.00
15263;BME280;7733;51.554;13.590;2023-03-24T04:58:27;99276.69;;;13.49;100.00
15263;BME280;7733;51.554;13.590;2023-03-24T05:00:54;99271.41;;;13.49;100.00
15263;BME280;7733;51.554;13.590;2023-03-24T05:03:21;99266.28;;;13.46;100.00
15263;BME280;7733;51.554;13.590;2023-03-24T05:05:49;99272.44;;;13.65;100.00
15263;BME280;7733;51.554;13.590;2023-03-24T05:08:17;99265.47;;;13.64;100.00
15263;BME280;7733;51.554;13.590;2023-03-24T05:10:43;99256.19;;;13.56;100.00
15263;BME280;7733;51.554;13.590;2023-03-24T05:13:11;99267.03;;;13.68;100.00
15263;BME280;7733;51.554;13.590;2023-03-24T05:15:37;99262.44;;;13.53;100.00
15263;BME280;7733;51.554;13.590;2023-03-24T05:18:04;99260.41;;;13.79;100.00
15263;BME280;7733;51.554;13.590;2023-03-24T05:20:31;99262.41;;;13.74;100.00
15263;BME280;7733;51.554;13.590;2023-03-24T05:22:57;99254.38;;;13.95;100.00
15263;BME280;7733;51.554;13.590;2023-03-24T05:25:22;99252.09;;;13.88;100.00
15263;BME280;7733;51.554;13.590;2023-03-24T05:27:48;99247.53;;;13.73;100.00
15263;BME280;7733;51.554;13.590;2023-03-24T05:30:15;99240.84;;;14.03;100.00
15263;BME280;7733;51.554;13.590;2023-03-24T05:32:41;99245.06;;;13.88;100.00
15263;BME280;7733;51.554;13.590;2023-03-24T05:35:07;99247.22;;;13.79;100.00
15263;BME280;7733;51.554;13.590;2023-03-24T05:37:33;99236.00;;;13.94;100.00
15263;BME280;7733;51.554;13.590;2023-03-24T05:39:59;99240.03;;;14.01;100.00
15263;BME280;7733;51.554;13.590;2023-03-24T05:42:25;99234.78;;;14.20;100.00
15263;BME280;7733;51.554;13.590;2023-03-24T05:44:50;99229.78;;;13.95;100.00
15263;BME280;7733;51.554;13.590;2023-03-24T05:47:16;99223.19;;;13.86;100.00
15263;BME280;7733;51.554;13.590;2023-03-24T05:49:45;99218.69;;;14.45;100.00
15263;BME280;7733;51.554;13.590;2023-03-24T05:52:12;99215.19;;;14.44;100.00
15263;BME280;7733;51.554;13.590;2023-03-24T05:54:41;99214.72;;;14.35;100.00
15263;BME280;7733;51.554;13.590;2023-03-24T05:57:14;99217.97;;;14.58;100.00
15263;BME280;7733;51.554;13.590;2023-03-24T05:59:41;99209.78;;;14.65;100.00
15263;BME280;7733;51.554;13.590;2023-03-24T06:02:07;99210.34;;;14.88;100.00
15263;BME280;7733;51.554;13.590;2023-03-24T06:04:33;99193.31;;;14.94;100.00
15263;BME280;7733;51.554;13.590;2023-03-24T06:07:00;99200.09;;;14.82;100.00
15263;BME280;7733;51.554;13.590;2023-03-24T06:09:30;99192.63;;;15.08;100.00
15263;BME280;7733;51.554;13.590;2023-03-24T06:12:02;99187.78;;;14.81;100.00
15263;BME280;7733;51.554;13.590;2023-03-24T06:14:27;99182.31;;;14.86;100.00
15263;BME280;7733;51.554;13.590;2023-03-24T06:16:54;99165.44;;;14.71;100.00
15263;BME280;7733;51.554;13.590;2023-03-24T06:19:25;99172.59;;;14.69;100.00
15263;BME280;7733;51.554;13.590;2023-03-24T06:21:52;99157.91;;;14.81;100.00
15263;BME280;7733;51.554;13.590;2023-03-24T06:24:19;99160.78;;;14.76;100.00
15263;BME280;7733;51.554;13.590;2023-03-24T06:26:45;99153.78;;;14.93;100.00
15263;BME280;7733;51.554;13.590;2023-03-24T06:29:15;99159.06;;;15.10;100.00
15263;BME280;7733;51.554;13.590;2023-03-24T06:31:46;99157.78;;;15.17;100.00
15263;BME280;7733;51.554;13.590;2023-03-24T06:34:12;99160.94;;;14.90;100.00
15263;BME280;7733;51.554;13.590;2023-03-24T06:36:38;99158.16;;;14.76;100.00
15263;BME280;7733;51.554;13.590;2023-03-24T06:39:05;99153.03;;;14.73;100.00
15263;BME280;7733;51.554;13.590;2023-03-24T06:41:31;99166.63;;;14.29;100.00
15263;BME280;7733;51.554;13.590;2023-03-24T06:43:57;99155.75;;;14.54;100.00
15263;BME280;7733;51.554;13.590;2023-03-24T06:46:23;99166.94;;;14.41;100.00
15263;BME280;7733;51.554;13.590;2023-03-24T06:48:49;99162.09;;;14.50;100.00
15263;BME280;7733;51.554;13.590;2023-03-24T06:51:16;99162.13;;;14.31;100.00
15263;BME280;7733;51.554;13.590;2023-03-24T06:53:42;99157.38;;;14.57;100.00
15263;BME280;7733;51.554;13.590;2023-03-24T06:56:10;99160.66;;;14.62;100.00
15263;BME280;7733;51.554;13.590;2023-03-24T06:58:42;99156.78;;;14.33;100.00
15263;BME280;7733;51.554;13.590;2023-03-24T07:01:08;99146.72;;;14.58;100.00
15263;BME280;7733;51.554;13.590;2023-03-24T07:03:34;99156.13;;;14.47;100.00
15263;BME280;7733;51.554;13.590;2023-03-24T07:05:59;99152.94;;;14.57;100.00
15263;BME280;7733;51.554;13.590;2023-03-24T07:08:25;99147.91;;;14.53;100.00
15263;BME280;7733;51.554;13.590;2023-03-24T07:10:52;99148.84;;;14.52;100.00
15263;BME280;7733;51.554;13.590;2023-03-24T07:13:18;99152.56;;;14.48;100.00
15263;BME280;7733;51.554;13.590;2023-03-24T07:15:43;99142.78;;;14.67;100.00
15263;BME280;7733;51.554;13.590;2023-03-24T07:18:09;99145.44;;;14.67;100.00
15263;BME280;7733;51.554;13.590;2023-03-24T07:20:35;99134.38;;;14.59;100.00
15263;BME280;7733;51.554;13.590;2023-03-24T07:23:01;99136.56;;;14.51;100.00
15263;BME280;7733;51.554;13.590;2023-03-24T07:25:27;99138.44;;;14.49;100.00
15263;BME280;7733;51.554;13.590;2023-03-24T07:27:54;99130.69;;;14.63;100.00
15263;BME280;7733;51.554;13.590;2023-03-24T07:30:21;99125.88;;;14.35;100.00
15263;BME280;7733;51.554;13.590;2023-03-24T07:32:47;99121.75;;;14.48;100.00
15263;BME280;7733;51.554;13.590;2023-03-24T07:35:15;99128.19;;;14.60;100.00
15263;BME280;7733;51.554;13.590;2023-03-24T07:37:42;99119.72;;;14.71;100.00
15263;BME280;7733;51.554;13.590;2023-03-24T07:40:10;99111.56;;;14.58;100.00
15263;BME280;7733;51.554;13.590;2023-03-24T07:42:41;99101.19;;;14.55;100.00
15263;BME280;7733;51.554;13.590;2023-03-24T07:45:11;99102.44;;;14.48;100.00
15263;BME280;7733;51.554;13.590;2023-03-24T07:47:38;99103.91;;;14.53;100.00
15263;BME280;7733;51.554;13.590;2023-03-24T07:50:08;99103.97;;;14.69;100.00
15263;BME280;7733;51.554;13.590;2023-03-24T07:52:38;99109.09;;;14.72;100.00
15263;BME280;7733;51.554;13.590;2023-03-24T07:55:10;99110.19;;;14.85;100.00
15263;BME280;7733;51.554;13.590;2023-03-24T07:57:40;99108.22;;;14.89;100.00
15263;BME280;7733;51.554;13.590;2023-03-24T08:00:09;99118.09;;;14.68;100.00
15263;BME280;7733;51.554;13.590;2023-03-24T08:02:48;99106.66;;;15.02;100.00
15263;BME280;7733;51.554;13.590;2023-03-24T08:05:15;99108.88;;;15.10;100.00
15263;BME280;7733;51.554;13.590;2023-03-24T08:07:42;99105.81;;;15.02;100.00
15263;BME280;7733;51.554;13.590;2023-03-24T08:10:13;99111.84;;;15.04;100.00
15263;BME280;7733;51.554;13.590;2023-03-24T08:12:40;99114.72;;;15.32;98.74
15263;BME280;7733;51.554;13.590;2023-03-24T08:15:07;99120.25;;;15.28;99.33
15263;BME280;7733;51.554;13.590;2023-03-24T08:17:34;99111.78;;;15.21;97.89
15263;BME280;7733;51.554;13.590;2023-03-24T08:20:02;99117.78;;;15.40;97.12
15263;BME280;7733;51.554;13.590;2023-03-24T08:22:33;99128.00;;;15.31;97.04
15263;BME280;7733;51.554;13.590;2023-03-24T08:24:58;99122.56;;;15.34;98.36
15263;BME280;7733;51.554;13.590;2023-03-24T08:27:24;99129.16;;;15.42;97.66
15263;BME280;7733;51.554;13.590;2023-03-24T08:29:50;99119.75;;;15.37;97.26
15263;BME280;7733;51.554;13.590;2023-03-24T08:32:16;99123.34;;;15.51;97.57
15263;BME280;7733;51.554;13.590;2023-03-24T08:34:42;99125.84;;;15.55;97.56
15263;BME280;7733;51.554;13.590;2023-03-24T08:37:08;99123.88;;;15.58;98.41
15263;BME280;7733;51.554;13.590;2023-03-24T08:39:34;99136.63;;;15.67;97.07
15263;BME280;7733;51.554;13.590;2023-03-24T08:42:01;99121.28;;;15.74;97.44
15263;BME280;7733;51.554;13.590;2023-03-24T08:44:26;99124.69;;;15.76;97.33
15263;BME280;7733;51.554;13.590;2023-03-24T08:46:52;99126.38;;;15.77;96.03
15263;BME280;7733;51.554;13.590;2023-03-24T08:49:18;99126.13;;;15.81;95.94
15263;BME280;7733;51.554;13.590;2023-03-24T08:51:44;99141.31;;;15.78;94.95
15263;BME280;7733;51.554;13.590;2023-03-24T08:54:10;99128.75;;;15.81;95.02
15263;BME280;7733;51.554;13.590;2023-03-24T08:56:38;99134.00;;;15.83;93.55
15263;BME280;7733;51.554;13.590;2023-03-24T08:59:04;99141.22;;;15.95;92.54
15263;BME280;7733;51.554;13.590;2023-03-24T09:01:31;99152.66;;;15.96;92.38
15263;BME280;7733;51.554;13.590;2023-03-24T09:03:58;99151.03;;;15.93;91.84
15263;BME280;7733;51.554;13.590;2023-03-24T09:06:24;99167.94;;;15.91;92.17
15263;BME280;7733;51.554;13.590;2023-03-24T09:08:53;99156.16;;;15.96;92.63
15263;BME280;7733;51.554;13.590;2023-03-24T09:11:20;99158.31;;;15.90;93.56
15263;BME280;7733;51.554;13.590;2023-03-24T09:13:47;99155.47;;;15.93;94.20
15263;BME280;7733;51.554;13.590;2023-03-24T09:16:14;99154.03;;;15.87;93.93
15263;BME280;7733;51.554;13.590;2023-03-24T09:18:40;99163.75;;;15.87;94.21
15263;BME280;7733;51.554;13.590;2023-03-24T09:21:07;99169.72;;;15.90;93.74
15263;BME280;7733;51.554;13.590;2023-03-24T09:23:33;99163.66;;;16.20;92.75
15263;BME280;7733;51.554;13.590;2023-03-24T09:26:01;99160.59;;;16.11;91.45
15263;BME280;7733;51.554;13.590;2023-03-24T09:28:26;99160.31;;;16.16;89.77
15263;BME280;7733;51.554;13.590;2023-03-24T09:31:02;99153.31;;;16.31;89.27
15263;BME280;7733;51.554;13.590;2023-03-24T09:33:30;99147.19;;;16.30;89.30
15263;BME280;7733;51.554;13.590;2023-03-24T09:36:00;99160.63;;;16.41;88.90
15263;BME280;7733;51.554;13.590;2023-03-24T09:38:28;99154.66;;;16.38;88.98
15263;BME280;7733;51.554;13.590;2023-03-24T09:40:58;99154.81;;;16.51;88.80
15263;BME280;7733;51.554;13.590;2023-03-24T09:43:48;99155.41;;;16.40;86.81
15263;BME280;7733;51.554;13.590;2023-03-24T09:48:58;99163.78;;;16.48;87.67
15263;BME280;7733;51.554;13.590;2023-03-24T09:51:42;99144.97;;;16.68;87.83
15263;BME280;7733;51.554;13.590;2023-03-24T09:54:20;99138.00;;;16.82;86.79
15263;BME280;7733;51.554;13.590;2023-03-24T09:56:51;99147.69;;;16.97;84.92
15263;BME280;7733;51.554;13.590;2023-03-24T10:01:49;99132.00;;;17.51;86.67
15263;BME280;7733;51.554;13.590;2023-03-24T10:04:21;99145.09;;;17.82;83.58
15263;BME280;7733;51.554;13.590;2023-03-24T10:06:59;99145.13;;;17.95;81.53
15263;BME280;7733;51.554;13.590;2023-03-24T10:09:32;99133.50;;;18.24;81.07
15263;BME280;7733;51.554;13.590;2023-03-24T10:17:55;99126.28;;;18.39;77.10
15263;BME280;7733;51.554;13.590;2023-03-24T10:23:56;99131.19;;;18.72;77.07
15263;BME280;7733;51.554;13.590;2023-03-24T10:29:22;99138.22;;;18.46;77.16
15263;BME280;7733;51.554;13.590;2023-03-24T10:31:56;99140.78;;;18.88;76.53
15263;BME280;7733;51.554;13.590;2023-03-24T10:34:29;99138.75;;;18.66;76.61
15263;BME280;7733;51.554;13.590;2023-03-24T10:37:01;99129.53;;;18.44;75.84
15263;BME280;7733;51.554;13.590;2023-03-24T10:39:31;99131.13;;;18.20;76.00
15263;BME280;7733;51.554;13.590;2023-03-24T10:41:59;99141.16;;;18.29;76.59
15263;BME280;7733;51.554;13.590;2023-03-24T10:44:26;99137.94;;;18.24;76.00
15263;BME280;7733;51.554;13.590;2023-03-24T10:46:57;99143.44;;;18.21;75.73
15263;BME280;7733;51.554;13.590;2023-03-24T10:49:24;99143.31;;;17.96;76.86
15263;BME280;7733;51.554;13.590;2023-03-24T10:51:59;99130.59;;;18.01;77.30
15263;BME280;7733;51.554;13.590;2023-03-24T10:54:28;99143.41;;;17.94;76.95
15263;BME280;7733;51.554;13.590;2023-03-24T11:02:30;99151.69;;;17.89;75.17
15263;BME280;7733;51.554;13.590;2023-03-24T11:05:01;99157.25;;;17.99;76.11
15263;BME280;7733;51.554;13.590;2023-03-24T11:08:13;99155.91;;;18.33;76.47
15263;BME280;7733;51.554;13.590;2023-03-24T11:10:43;99151.69;;;18.16;76.15
15263;BME280;7733;51.554;13.590;2023-03-24T11:13:39;99170.16;;;17.91;76.71
15263;BME280;7733;51.554;13.590;2023-03-24T11:16:13;99162.41;;;17.88;77.46
15263;BME280;7733;51.554;13.590;2023-03-24T11:18:59;99165.19;;;17.99;77.93
15263;BME280;7733;51.554;13.590;2023-03-24T11:21:33;99148.72;;;17.94;77.73
15263;BME280;7733;51.554;13.590;2023-03-24T11:24:11;99142.50;;;18.22;78.00
15263;BME280;7733;51.554;13.590;2023-03-24T11:26:44;99156.97;;;18.04;77.90
15263;BME280;7733;51.554;13.590;2023-03-24T11:29:21;99152.00;;;18.39;77.37
15263;BME280;7733;51.554;13.590;2023-03-24T11:32:03;99151.16;;;18.38;76.65
15263;BME280;7733;51.554;13.590;2023-03-24T11:34:38;99150.78;;;18.57;77.69
15263;BME280;7733;51.554;13.590;2023-03-24T11:37:21;99149.00;;;18.31;76.39
15263;BME280;7733;51.554;13.590;2023-03-24T11:40:15;99157.28;;;18.26;76.46
15263;BME280;7733;51.554;13.590;2023-03-24T11:42:54;99154.16;;;18.19;76.26
15263;BME280;7733;51.554;13.590;2023-03-24T11:45:42;99168.91;;;17.97;77.27
15263;BME280;7733;51.554;13.590;2023-03-24T11:51:05;99143.59;;;18.32;76.12
15263;BME280;7733;51.554;13.590;2023-03-24T11:53:47;99136.31;;;18.75;75.54
15263;BME280;7733;51.554;13.590;2023-03-24T12:01:36;99115.56;;;18.28;75.86
15263;BME280;7733;51.554;13.590;2023-03-24T12:09:52;99172.03;;;17.60;70.27
15263;BME280;7733;51.554;13.590;2023-03-24T12:12:48;99173.69;;;16.90;65.10
15263;BME280;7733;51.554;13.590;2023-03-24T12:22:17;99168.25;;;16.32;66.34
15263;BME280;7733;51.554;13.590;2023-03-24T12:33:55;99181.00;;;16.09;68.89
15263;BME280;7733;51.554;13.590;2023-03-24T12:39:37;99188.81;;;15.79;73.65
15263;BME280;7733;51.554;13.590;2023-03-24T12:42:22;99185.94;;;15.51;75.34
15263;BME280;7733;51.554;13.590;2023-03-24T12:56:20;99182.09;;;15.90;75.68
15263;BME280;7733;51.554;13.590;2023-03-24T12:59:01;99183.00;;;15.73;77.53
15263;BME280;7733;51.554;13.590;2023-03-24T13:01:42;99188.56;;;15.51;77.66
15263;BME280;7733;51.554;13.590;2023-03-24T13:04:19;99202.84;;;15.31;78.54
15263;BME280;7733;51.554;13.590;2023-03-24T13:06:56;99212.78;;;15.43;78.62
15263;BME280;7733;51.554;13.590;2023-03-24T13:09:52;99224.00;;;14.97;82.77
15263;BME280;7733;51.554;13.590;2023-03-24T13:12:52;99230.81;;;15.01;82.87
15263;BME280;7733;51.554;13.590;2023-03-24T13:15:37;99232.44;;;14.69;83.51
15263;BME280;7733;51.554;13.590;2023-03-24T13:26:59;99223.25;;;14.40;93.15
15263;BME280;7733;51.554;13.590;2023-03-24T13:32:28;99213.78;;;14.54;93.93
15263;BME280;7733;51.554;13.590;2023-03-24T13:35:30;99212.94;;;14.54;95.21
15263;BME280;7733;51.554;13.590;2023-03-24T13:38:19;99216.16;;;14.42;96.70
15263;BME280;7733;51.554;13.590;2023-03-24T13:40:53;99224.44;;;14.15;98.13
15263;BME280;7733;51.554;13.590;2023-03-24T13:43:28;99219.41;;;14.11;99.28
15263;BME280;7733;51.554;13.590;2023-03-24T13:46:03;99222.31;;;14.23;98.76
15263;BME280;7733;51.554;13.590;2023-03-24T13:48:43;99232.28;;;14.17;99.58
15263;BME280;7733;51.554;13.590;2023-03-24T13:56:36;99255.69;;;14.06;99.45
15263;BME280;7733;51.554;13.590;2023-03-24T13:59:22;99264.94;;;14.14;98.90
15263;BME280;7733;51.554;13.590;2023-03-24T14:02:39;99268.19;;;14.19;99.94
15263;BME280;7733;51.554;13.590;2023-03-24T14:10:48;99276.13;;;13.82;100.00
15263;BME280;7733;51.554;13.590;2023-03-24T14:26:00;99317.97;;;13.28;100.00
15263;BME280;7733;51.554;13.590;2023-03-24T14:28:39;99302.22;;;13.27;100.00
15263;BME280;7733;51.554;13.590;2023-03-24T14:34:12;99287.41;;;13.45;100.00
15263;BME280;7733;51.554;13.590;2023-03-24T14:36:41;99285.16;;;13.35;100.00
15263;BME280;7733;51.554;13.590;2023-03-24T14:39:34;99282.66;;;13.32;100.00
15263;BME280;7733;51.554;13.590;2023-03-24T14:50:53;99256.34;;;13.72;100.00
15263;BME280;7733;51.554;13.590;2023-03-24T14:53:23;99241.25;;;14.31;100.00
15263;BME280;7733;51.554;13.590;2023-03-24T14:55:49;99220.41;;;14.63;100.00
15263;BME280;7733;51.554;13.590;2023-03-24T14:58:30;99198.44;;;14.80;100.00
15263;BME280;7733;51.554;13.590;2023-03-24T15:01:04;99186.41;;;14.91;99.87
15263;BME280;7733;51.554;13.590;2023-03-24T15:04:05;99168.84;;;15.08;98.46
15263;BME280;7733;51.554;13.590;2023-03-24T15:06:31;99167.78;;;14.95;98.50
15263;BME280;7733;51.554;13.590;2023-03-24T15:08:59;99170.41;;;14.95;99.09
15263;BME280;7733;51.554;13.590;2023-03-24T15:11:35;99174.91;;;15.10;97.86
15263;BME280;7733;51.554;13.590;2023-03-24T15:14:04;99179.09;;;14.45;100.00
15263;BME280;7733;51.554;13.590;2023-03-24T15:16:34;99183.53;;;14.79;100.00
15263;BME280;7733;51.554;13.590;2023-03-24T15:19:09;99196.03;;;14.58;100.00
15263;BME280;7733;51.554;13.590;2023-03-24T15:24:31;99226.13;;;14.35;100.00
15263;BME280;7733;51.554;13.590;2023-03-24T15:29:38;99240.63;;;14.26;100.00
15263;BME280;7733;51.554;13.590;2023-03-24T15:32:06;99250.47;;;14.04;100.00
15263;BME280;7733;51.554;13.590;2023-03-24T15:34:41;99252.19;;;14.05;100.00
15263;BME280;7733;51.554;13.590;2023-03-24T15:37:36;99252.31;;;14.21;100.00
15263;BME280;7733;51.554;13.590;2023-03-24T15:40:04;99226.59;;;13.69;100.00
15263;BME280;7733;51.554;13.590;2023-03-24T15:42:31;99216.75;;;14.29;100.00
15263;BME280;7733;51.554;13.590;2023-03-24T15:45:15;99214.03;;;14.12;100.00
15263;BME280;7733;51.554;13.590;2023-03-24T15:47:43;99222.44;;;14.20;100.00
15263;BME280;7733;51.554;13.590;2023-03-24T15:50:36;99225.75;;;13.88;100.00
15263;BME280;7733;51.554;13.590;2023-03-24T15:55:43;99225.38;;;13.95;100.00
15263;BME280;7733;51.554;13.590;2023-03-24T15:58:28;99230.94;;;13.89;100.00
15263;BME280;7733;51.554;13.590;2023-03-24T16:01:00;99234.38;;;13.52;100.00
15263;BME280;7733;51.554;13.590;2023-03-24T16:03:29;99238.16;;;13.86;100.00
15263;BME280;7733;51.554;13.590;2023-03-24T16:05:56;99240.72;;;13.48;100.00
15263;BME280;7733;51.554;13.590;2023-03-24T16:08:30;99236.25;;;13.50;100.00
15263;BME280;7733;51.554;13.590;2023-03-24T16:11:12;99242.97;;;13.37;100.00
15263;BME280;7733;51.554;13.590;2023-03-24T16:13:41;99252.28;;;13.64;100.00
15263;BME280;7733;51.554;13.590;2023-03-24T16:18:44;99239.31;;;13.79;100.00